sensor_id;sensor_type;location;lat;lon;timestamp;pressure;altitude;pressure_sealevel;temperature;humidity
60479;BME280;46321;48.398;11.754;2023-12-07T00:00:15;96827.84;;;0.91;81.09
60479;BME280;46321;48.398;11.754;2023-12-07T00:02:40;96830.97;;;0.83;81.08
60479;BME280;46321;48.398;11.754;2023-12-07T00:05:06;96838.06;;;0.81;81.23
60479;BME280;46321;48.398;11.754;2023-12-07T00:07:31;96832.97;;;0.79;81.28
60479;BME280;46321;48.398;11.754;2023-12-07T00:09:56;96844.44;;;0.77;81.48
60479;BME280;46321;48.398;11.754;2023-12-07T00:12:21;96843.81;;;0.73;81.78
60479;BME280;46321;48.398;11.754;2023-12-07T00:14:47;96853.28;;;0.74;81.71
60479;BME280;46321;48.398;11.754;2023-12-07T00:17:12;96851.41;;;0.76;81.66
60479;BME280;46321;48.398;11.754;2023-12-07T00:19:37;96850.06;;;0.71;82.07
60479;BME280;46321;48.398;11.754;2023-12-07T00:22:03;96846.44;;;0.73;82.07
60479;BME280;46321;48.398;11.754;2023-12-07T00:24:28;96841.81;;;0.77;81.99
60479;BME280;46321;48.398;11.754;2023-12-07T00:26:53;96853.94;;;0.78;82.00
60479;BME280;46321;48.398;11.754;2023-12-07T00:29:19;96848.81;;;0.76;82.11
60479;BME280;46321;48.398;11.754;2023-12-07T00:31:44;96850.06;;;0.71;82.03
60479;BME280;46321;48.398;11.754;2023-12-07T00:34:09;96853.94;;;0.65;82.03
60479;BME280;46321;48.398;11.754;2023-12-07T00:36:35;96846.50;;;0.59;82.15
60479;BME280;46321;48.398;11.754;2023-12-07T00:39:00;96843.28;;;0.55;82.04
60479;BME280;46321;48.398;11.754;2023-12-07T00:41:25;96845.47;;;0.48;82.27
60479;BME280;46321;48.398;11.754;2023-12-07T00:43:51;96846.00;;;0.40;82.48
60479;BME280;46321;48.398;11.754;2023-12-07T00:46:16;96840.25;;;0.35;82.37
60479;BME280;46321;48.398;11.754;2023-12-07T00:48:41;96842.22;;;0.31;82.55
60479;BME280;46321;48.398;11.754;2023-12-07T00:51:07;96852.41;;;0.21;82.66
60479;BME280;46321;48.398;11.754;2023-12-07T00:53:32;96851.88;;;0.16;83.00
60479;BME280;46321;48.398;11.754;2023-12-07T00:55:57;96849.50;;;0.13;83.12
60479;BME280;46321;48.398;11.754;2023-12-07T00:58:22;96853.84;;;0.13;83.05
60479;BME280;46321;48.398;11.754;2023-12-07T01:00:48;96856.31;;;0.01;83.35
60479;BME280;46321;48.398;11.754;2023-12-07T01:03:13;96856.22;;;0.03;83.48
60479;BME280;46321;48.398;11.754;2023-12-07T01:05:39;96860.72;;;0.14;83.22
60479;BME280;46321;48.398;11.754;2023-12-07T01:08:04;96868.53;;;0.14;83.41
60479;BME280;46321;48.398;11.754;2023-12-07T01:10:29;96882.16;;;0.04;84.20
60479;BME280;46321;48.398;11.754;2023-12-07T01:12:54;96882.81;;;0.21;83.80
60479;BME280;46321;48.398;11.754;2023-12-07T01:15:20;96883.56;;;0.23;83.54
60479;BME280;46321;48.398;11.754;2023-12-07T01:17:45;96883.25;;;0.28;83.42
60479;BME280;46321;48.398;11.754;2023-12-07T01:20:11;96888.97;;;0.20;83.64
60479;BME280;46321;48.398;11.754;2023-12-07T01:22:39;96888.88;;;0.21;83.41
60479;BME280;46321;48.398;11.754;2023-12-07T01:25:06;96887.63;;;0.27;83.35
60479;BME280;46321;48.398;11.754;2023-12-07T01:27:31;96879.59;;;0.17;83.60
60479;BME280;46321;48.398;11.754;2023-12-07T01:29:56;96888.03;;;0.21;83.36
60479;BME280;46321;48.398;11.754;2023-12-07T01:32:22;96886.44;;;0.18;83.45
60479;BME280;46321;48.398;11.754;2023-12-07T01:34:47;96885.53;;;0.19;83.27
60479;BME280;46321;48.398;11.754;2023-12-07T01:37:12;96902.63;;;0.24;83.15
60479;BME280;46321;48.398;11.754;2023-12-07T01:39:38;96897.22;;;0.27;82.96
60479;BME280;46321;48.398;11.754;2023-12-07T01:42:03;96893.06;;;0.24;82.70
60479;BME280;46321;48.398;11.754;2023-12-07T01:44:29;96885.44;;;0.21;82.57
60479;BME280;46321;48.398;11.754;2023-12-07T01:46:54;96890.19;;;0.14;82.39
60479;BME280;46321;48.398;11.754;2023-12-07T01:49:20;96879.44;;;0.06;82.54
60479;BME280;46321;48.398;11.754;2023-12-07T01:51:45;96890.50;;;0.09;82.30
60479;BME280;46321;48.398;11.754;2023-12-07T01:54:11;96883.59;;;-0.05;82.50
60479;BME280;46321;48.398;11.754;2023-12-07T01:56:37;96898.94;;;-0.15;82.79
60479;BME280;46321;48.398;11.754;2023-12-07T01:59:02;96899.47;;;-0.22;82.92
60479;BME280;46321;48.398;11.754;2023-12-07T02:01:28;96899.28;;;-0.34;82.89
60479;BME280;46321;48.398;11.754;2023-12-07T02:03:53;96897.06;;;-0.40;83.46
60479;BME280;46321;48.398;11.754;2023-12-07T02:06:19;96911.09;;;-0.43;83.58
60479;BME280;46321;48.398;11.754;2023-12-07T02:08:45;96904.22;;;-0.44;83.54
60479;BME280;46321;48.398;11.754;2023-12-07T02:11:10;96908.41;;;-0.41;83.72
60479;BME280;46321;48.398;11.754;2023-12-07T02:13:37;96906.72;;;-0.42;83.60
60479;BME280;46321;48.398;11.754;2023-12-07T02:16:16;96909.03;;;-0.38;83.62
60479;BME280;46321;48.398;11.754;2023-12-07T02:19:04;96906.72;;;-0.42;83.87
60479;BME280;46321;48.398;11.754;2023-12-07T02:21:56;96904.13;;;-0.42;83.86
60479;BME280;46321;48.398;11.754;2023-12-07T02:24:25;96901.22;;;-0.38;84.03
60479;BME280;46321;48.398;11.754;2023-12-07T02:26:52;96919.91;;;-0.31;83.98
60479;BME280;46321;48.398;11.754;2023-12-07T02:29:17;96917.28;;;-0.31;84.26
60479;BME280;46321;48.398;11.754;2023-12-07T02:31:43;96919.56;;;-0.39;84.49
60479;BME280;46321;48.398;11.754;2023-12-07T02:34:08;96924.66;;;-0.38;84.58
60479;BME280;46321;48.398;11.754;2023-12-07T02:36:38;96919.66;;;-0.41;84.69
60479;BME280;46321;48.398;11.754;2023-12-07T02:39:04;96921.59;;;-0.30;84.37
60479;BME280;46321;48.398;11.754;2023-12-07T02:41:31;96917.22;;;-0.29;84.61
60479;BME280;46321;48.398;11.754;2023-12-07T02:43:57;96916.63;;;-0.20;84.09
60479;BME280;46321;48.398;11.754;2023-12-07T02:46:23;96912.94;;;-0.30;84.41
60479;BME280;46321;48.398;11.754;2023-12-07T02:48:49;96910.34;;;-0.30;84.47
60479;BME280;46321;48.398;11.754;2023-12-07T02:51:14;96915.53;;;-0.30;84.23
60479;BME280;46321;48.398;11.754;2023-12-07T02:53:39;96918.75;;;-0.27;83.83
60479;BME280;46321;48.398;11.754;2023-12-07T02:56:05;96924.56;;;-0.36;83.97
60479;BME280;46321;48.398;11.754;2023-12-07T02:58:30;96924.00;;;-0.41;83.87
60479;BME280;46321;48.398;11.754;2023-12-07T03:00:55;96922.53;;;-0.45;84.20
60479;BME280;46321;48.398;11.754;2023-12-07T03:03:20;96926.72;;;-0.43;83.94
60479;BME280;46321;48.398;11.754;2023-12-07T03:05:46;96926.78;;;-0.44;84.11
60479;BME280;46321;48.398;11.754;2023-12-07T03:08:11;96928.47;;;-0.43;84.03
60479;BME280;46321;48.398;11.754;2023-12-07T03:10:36;96927.28;;;-0.52;83.90
60479;BME280;46321;48.398;11.754;2023-12-07T03:13:01;96926.44;;;-0.53;83.98
60479;BME280;46321;48.398;11.754;2023-12-07T03:15:27;96929.78;;;-0.51;83.84
60479;BME280;46321;48.398;11.754;2023-12-07T03:17:52;96937.22;;;-0.59;83.83
60479;BME280;46321;48.398;11.754;2023-12-07T03:20:18;96939.72;;;-0.58;84.07
60479;BME280;46321;48.398;11.754;2023-12-07T03:22:43;96937.31;;;-0.61;83.50
60479;BME280;46321;48.398;11.754;2023-12-07T03:25:08;96938.16;;;-0.75;84.14
60479;BME280;46321;48.398;11.754;2023-12-07T03:27:33;96947.00;;;-0.63;84.07
60479;BME280;46321;48.398;11.754;2023-12-07T03:29:59;96945.88;;;-0.59;83.43
60479;BME280;46321;48.398;11.754;2023-12-07T03:32:24;96943.44;;;-0.62;83.38
60479;BME280;46321;48.398;11.754;2023-12-07T03:34:49;96946.16;;;-0.63;83.53
60479;BME280;46321;48.398;11.754;2023-12-07T03:37:14;96946.59;;;-0.56;83.40
60479;BME280;46321;48.398;11.754;2023-12-07T03:39:40;96953.56;;;-0.57;83.22
60479;BME280;46321;48.398;11.754;2023-12-07T03:42:05;96959.50;;;-0.55;83.35
60479;BME280;46321;48.398;11.754;2023-12-07T03:44:30;96953.41;;;-0.54;83.21
60479;BME280;46321;48.398;11.754;2023-12-07T03:46:56;96961.28;;;-0.55;83.30
60479;BME280;46321;48.398;11.754;2023-12-07T03:49:21;96960.63;;;-0.59;83.38
60479;BME280;46321;48.398;11.754;2023-12-07T03:51:46;96968.06;;;-0.53;83.03
60479;BME280;46321;48.398;11.754;2023-12-07T03:54:12;96966.28;;;-0.52;83.38
60479;BME280;46321;48.398;11.754;2023-12-07T03:56:37;96965.44;;;-0.53;83.50
60479;BME280;46321;48.398;11.754;2023-12-07T03:59:02;96964.53;;;-0.52;83.66
60479;BME280;46321;48.398;11.754;2023-12-07T04:01:29;96969.16;;;-0.42;83.23
60479;BME280;46321;48.398;11.754;2023-12-07T04:03:56;96971.41;;;-0.36;83.02
60479;BME280;46321;48.398;11.754;2023-12-07T04:06:23;96977.63;;;-0.39;83.06
60479;BME280;46321;48.398;11.754;2023-12-07T04:08:48;96975.88;;;-0.38;82.95
60479;BME280;46321;48.398;11.754;2023-12-07T04:11:14;96974.63;;;-0.32;82.78
60479;BME280;46321;48.398;11.754;2023-12-07T04:13:40;96981.53;;;-0.31;82.83
60479;BME280;46321;48.398;11.754;2023-12-07T04:16:06;96990.88;;;-0.29;82.52
60479;BME280;46321;48.398;11.754;2023-12-07T04:18:32;96982.16;;;-0.28;82.60
60479;BME280;46321;48.398;11.754;2023-12-07T04:20:57;96995.44;;;-0.32;82.74
60479;BME280;46321;48.398;11.754;2023-12-07T04:23:22;97001.28;;;-0.29;83.07
60479;BME280;46321;48.398;11.754;2023-12-07T04:25:48;96994.88;;;-0.23;82.77
60479;BME280;46321;48.398;11.754;2023-12-07T04:28:13;96994.69;;;-0.20;82.53
60479;BME280;46321;48.398;11.754;2023-12-07T04:30:38;96997.22;;;-0.18;82.93
60479;BME280;46321;48.398;11.754;2023-12-07T04:33:04;96989.31;;;-0.17;82.80
60479;BME280;46321;48.398;11.754;2023-12-07T04:35:30;96997.28;;;-0.20;82.69
60479;BME280;46321;48.398;11.754;2023-12-07T04:37:55;96993.59;;;-0.16;82.63
60479;BME280;46321;48.398;11.754;2023-12-07T04:40:20;96993.88;;;-0.20;82.50
60479;BME280;46321;48.398;11.754;2023-12-07T04:42:46;96996.94;;;-0.28;82.43
60479;BME280;46321;48.398;11.754;2023-12-07T04:45:11;96988.66;;;-0.35;82.55
60479;BME280;46321;48.398;11.754;2023-12-07T04:47:37;96996.00;;;-0.42;82.78
60479;BME280;46321;48.398;11.754;2023-12-07T04:50:02;96994.16;;;-0.40;82.84
60479;BME280;46321;48.398;11.754;2023-12-07T04:52:28;96994.53;;;-0.46;83.28
60479;BME280;46321;48.398;11.754;2023-12-07T04:54:53;97003.44;;;-0.50;83.38
60479;BME280;46321;48.398;11.754;2023-12-07T04:57:18;96999.63;;;-0.44;83.08
60479;BME280;46321;48.398;11.754;2023-12-07T04:59:44;97009.66;;;-0.53;83.47
60479;BME280;46321;48.398;11.754;2023-12-07T05:02:13;97006.78;;;-0.48;83.03
60479;BME280;46321;48.398;11.754;2023-12-07T05:04:39;97020.06;;;-0.53;82.96
60479;BME280;46321;48.398;11.754;2023-12-07T05:07:05;97013.22;;;-0.54;82.71
60479;BME280;46321;48.398;11.754;2023-12-07T05:09:30;97020.44;;;-0.59;82.82
60479;BME280;46321;48.398;11.754;2023-12-07T05:11:56;97018.97;;;-0.63;83.12
60479;BME280;46321;48.398;11.754;2023-12-07T05:14:21;97013.94;;;-0.66;83.14
60479;BME280;46321;48.398;11.754;2023-12-07T05:16:46;97007.88;;;-0.67;82.89
60479;BME280;46321;48.398;11.754;2023-12-07T05:19:13;97010.59;;;-0.68;83.11
60479;BME280;46321;48.398;11.754;2023-12-07T05:21:38;97011.22;;;-0.79;83.46
60479;BME280;46321;48.398;11.754;2023-12-07T05:24:04;97012.06;;;-0.79;83.57
60479;BME280;46321;48.398;11.754;2023-12-07T05:26:29;97013.34;;;-0.86;83.72
60479;BME280;46321;48.398;11.754;2023-12-07T05:28:58;97008.25;;;-0.88;83.81
60479;BME280;46321;48.398;11.754;2023-12-07T05:31:24;97008.91;;;-0.84;83.57
60479;BME280;46321;48.398;11.754;2023-12-07T05:33:49;97010.84;;;-0.88;83.41
60479;BME280;46321;48.398;11.754;2023-12-07T05:36:14;97018.19;;;-0.95;83.67
60479;BME280;46321;48.398;11.754;2023-12-07T05:38:40;97022.97;;;-1.03;83.73
60479;BME280;46321;48.398;11.754;2023-12-07T05:41:05;97025.66;;;-1.05;83.49
60479;BME280;46321;48.398;11.754;2023-12-07T05:43:30;97026.88;;;-1.10;83.84
60479;BME280;46321;48.398;11.754;2023-12-07T05:45:56;97029.38;;;-1.09;83.70
60479;BME280;46321;48.398;11.754;2023-12-07T05:48:21;97035.50;;;-1.10;83.88
60479;BME280;46321;48.398;11.754;2023-12-07T05:50:46;97035.50;;;-1.10;84.02
60479;BME280;46321;48.398;11.754;2023-12-07T05:53:11;97028.53;;;-1.09;84.03
60479;BME280;46321;48.398;11.754;2023-12-07T05:55:38;97030.22;;;-1.08;83.96
60479;BME280;46321;48.398;11.754;2023-12-07T05:58:03;97031.88;;;-1.07;84.17
60479;BME280;46321;48.398;11.754;2023-12-07T06:00:29;97022.56;;;-1.11;84.26
60479;BME280;46321;48.398;11.754;2023-12-07T06:02:54;97023.59;;;-1.14;84.27
60479;BME280;46321;48.398;11.754;2023-12-07T06:05:19;97024.03;;;-1.22;84.25
60479;BME280;46321;48.398;11.754;2023-12-07T06:07:46;97021.34;;;-1.20;84.20
60479;BME280;46321;48.398;11.754;2023-12-07T06:10:11;97022.47;;;-1.41;84.52
60479;BME280;46321;48.398;11.754;2023-12-07T06:12:36;97025.19;;;-1.42;84.67
60479;BME280;46321;48.398;11.754;2023-12-07T06:15:02;97024.72;;;-1.34;84.25
60479;BME280;46321;48.398;11.754;2023-12-07T06:17:27;97024.41;;;-1.28;83.77
60479;BME280;46321;48.398;11.754;2023-12-07T06:19:52;97012.56;;;-1.34;83.64
60479;BME280;46321;48.398;11.754;2023-12-07T06:22:18;97024.72;;;-1.34;83.43
60479;BME280;46321;48.398;11.754;2023-12-07T06:24:43;97018.03;;;-1.39;83.71
60479;BME280;46321;48.398;11.754;2023-12-07T06:27:09;97021.38;;;-1.36;83.62
60479;BME280;46321;48.398;11.754;2023-12-07T06:29:35;97030.53;;;-1.45;83.92
60479;BME280;46321;48.398;11.754;2023-12-07T06:32:00;97014.69;;;-1.41;83.96
60479;BME280;46321;48.398;11.754;2023-12-07T06:34:25;97021.50;;;-1.54;84.26
60479;BME280;46321;48.398;11.754;2023-12-07T06:36:51;97014.63;;;-1.39;83.94
60479;BME280;46321;48.398;11.754;2023-12-07T06:39:16;97022.13;;;-1.34;83.29
60479;BME280;46321;48.398;11.754;2023-12-07T06:41:41;97017.22;;;-1.39;83.29
60479;BME280;46321;48.398;11.754;2023-12-07T06:44:07;97022.69;;;-1.44;82.94
60479;BME280;46321;48.398;11.754;2023-12-07T06:46:33;97033.56;;;-1.53;83.40
60479;BME280;46321;48.398;11.754;2023-12-07T06:48:58;97032.81;;;-1.55;83.83
60479;BME280;46321;48.398;11.754;2023-12-07T06:51:24;97039.69;;;-1.54;83.81
60479;BME280;46321;48.398;11.754;2023-12-07T06:53:50;97037.06;;;-1.54;83.55
60479;BME280;46321;48.398;11.754;2023-12-07T06:56:15;97037.81;;;-1.52;83.32
60479;BME280;46321;48.398;11.754;2023-12-07T06:58:40;97045.72;;;-1.54;83.32
60479;BME280;46321;48.398;11.754;2023-12-07T07:01:06;97046.56;;;-1.53;83.49
60479;BME280;46321;48.398;11.754;2023-12-07T07:03:31;97044.88;;;-1.54;83.11
60479;BME280;46321;48.398;11.754;2023-12-07T07:05:56;97049.25;;;-1.55;83.23
60479;BME280;46321;48.398;11.754;2023-12-07T07:08:21;97048.06;;;-1.49;83.06
60479;BME280;46321;48.398;11.754;2023-12-07T07:10:47;97046.78;;;-1.42;83.24
60479;BME280;46321;48.398;11.754;2023-12-07T07:13:12;97050.03;;;-1.22;83.11
60479;BME280;46321;48.398;11.754;2023-12-07T07:15:41;97050.16;;;-1.09;82.85
60479;BME280;46321;48.398;11.754;2023-12-07T07:18:07;97043.72;;;-0.87;82.42
60479;BME280;46321;48.398;11.754;2023-12-07T07:20:33;97044.28;;;-0.67;81.61
60479;BME280;46321;48.398;11.754;2023-12-07T07:22:58;97049.25;;;-0.48;80.86
60479;BME280;46321;48.398;11.754;2023-12-07T07:25:24;97045.53;;;-0.29;80.14
60479;BME280;46321;48.398;11.754;2023-12-07T07:27:49;97046.19;;;-0.10;79.36
60479;BME280;46321;48.398;11.754;2023-12-07T07:30:14;97054.16;;;0.01;78.65
60479;BME280;46321;48.398;11.754;2023-12-07T07:32:40;97051.97;;;0.22;77.83
60479;BME280;46321;48.398;11.754;2023-12-07T07:35:06;97058.13;;;0.21;76.75
60479;BME280;46321;48.398;11.754;2023-12-07T07:37:31;97060.91;;;0.33;76.22
60479;BME280;46321;48.398;11.754;2023-12-07T07:39:56;97055.06;;;0.57;75.84
60479;BME280;46321;48.398;11.754;2023-12-07T07:42:21;97060.06;;;0.88;75.34
60479;BME280;46321;48.398;11.754;2023-12-07T07:44:47;97051.47;;;1.13;74.05
60479;BME280;46321;48.398;11.754;2023-12-07T07:47:12;97049.59;;;1.55;73.05
60479;BME280;46321;48.398;11.754;2023-12-07T07:49:37;97052.28;;;2.05;72.22
60479;BME280;46321;48.398;11.754;2023-12-07T07:52:03;97054.34;;;2.75;69.92
60479;BME280;46321;48.398;11.754;2023-12-07T07:54:30;97053.59;;;3.34;66.72
60479;BME280;46321;48.398;11.754;2023-12-07T07:56:55;97054.50;;;3.81;65.30
60479;BME280;46321;48.398;11.754;2023-12-07T07:59:20;97054.44;;;4.50;62.73
60479;BME280;46321;48.398;11.754;2023-12-07T08:01:46;97052.97;;;5.01;60.69
60479;BME280;46321;48.398;11.754;2023-12-07T08:04:12;97049.25;;;5.68;59.34
60479;BME280;46321;48.398;11.754;2023-12-07T08:06:37;97046.31;;;6.24;57.08
60479;BME280;46321;48.398;11.754;2023-12-07T08:09:03;97047.09;;;6.76;55.57
60479;BME280;46321;48.398;11.754;2023-12-07T08:11:28;97046.66;;;7.30;54.29
60479;BME280;46321;48.398;11.754;2023-12-07T08:13:54;97038.81;;;7.78;52.37
60479;BME280;46321;48.398;11.754;2023-12-07T08:16:19;97045.44;;;8.21;50.95
60479;BME280;46321;48.398;11.754;2023-12-07T08:18:44;97042.63;;;8.51;49.87
60479;BME280;46321;48.398;11.754;2023-12-07T08:21:20;97037.78;;;9.11;48.11
60479;BME280;46321;48.398;11.754;2023-12-07T08:23:45;97039.59;;;9.55;47.05
60479;BME280;46321;48.398;11.754;2023-12-07T08:26:10;97027.97;;;10.01;46.59
60479;BME280;46321;48.398;11.754;2023-12-07T08:28:36;97030.72;;;10.35;44.93
60479;BME280;46321;48.398;11.754;2023-12-07T08:31:01;97027.72;;;10.73;44.50
60479;BME280;46321;48.398;11.754;2023-12-07T08:33:27;97034.03;;;11.14;43.24
60479;BME280;46321;48.398;11.754;2023-12-07T08:35:52;97034.16;;;11.62;42.52
60479;BME280;46321;48.398;11.754;2023-12-07T08:38:20;97028.47;;;11.90;40.94
60479;BME280;46321;48.398;11.754;2023-12-07T08:40:47;97037.34;;;12.14;40.99
60479;BME280;46321;48.398;11.754;2023-12-07T08:43:12;97032.53;;;12.50;38.96
60479;BME280;46321;48.398;11.754;2023-12-07T08:45:37;97030.72;;;12.82;38.47
60479;BME280;46321;48.398;11.754;2023-12-07T08:48:03;97035.72;;;13.24;37.13
60479;BME280;46321;48.398;11.754;2023-12-07T08:50:29;97031.22;;;13.25;37.26
60479;BME280;46321;48.398;11.754;2023-12-07T08:52:54;97034.28;;;13.76;36.04
60479;BME280;46321;48.398;11.754;2023-12-07T08:55:20;97035.59;;;13.95;35.47
60479;BME280;46321;48.398;11.754;2023-12-07T08:57:45;97028.03;;;14.29;34.57
60479;BME280;46321;48.398;11.754;2023-12-07T09:00:11;97029.78;;;14.59;33.29
60479;BME280;46321;48.398;11.754;2023-12-07T09:02:38;97032.16;;;14.69;33.21
60479;BME280;46321;48.398;11.754;2023-12-07T09:05:03;97032.09;;;14.99;32.46
60479;BME280;46321;48.398;11.754;2023-12-07T09:07:29;97029.75;;;15.11;32.84
60479;BME280;46321;48.398;11.754;2023-12-07T09:09:54;97025.28;;;15.40;32.13
60479;BME280;46321;48.398;11.754;2023-12-07T09:12:19;97021.53;;;15.92;31.21
60479;BME280;46321;48.398;11.754;2023-12-07T09:14:44;97018.81;;;15.85;31.11
60479;BME280;46321;48.398;11.754;2023-12-07T09:17:09;97013.56;;;16.41;30.18
60479;BME280;46321;48.398;11.754;2023-12-07T09:19:35;97006.72;;;17.01;29.67
60479;BME280;46321;48.398;11.754;2023-12-07T09:22:00;97013.91;;;17.08;29.69
60479;BME280;46321;48.398;11.754;2023-12-07T09:24:26;97012.09;;;17.42;28.87
60479;BME280;46321;48.398;11.754;2023-12-07T09:26:51;97006.91;;;17.68;27.67
60479;BME280;46321;48.398;11.754;2023-12-07T09:29:17;97004.81;;;18.57;27.07
60479;BME280;46321;48.398;11.754;2023-12-07T09:31:42;96998.66;;;19.14;25.43
60479;BME280;46321;48.398;11.754;2023-12-07T09:34:08;97005.44;;;19.24;25.95
60479;BME280;46321;48.398;11.754;2023-12-07T09:36:34;96997.31;;;20.19;24.53
60479;BME280;46321;48.398;11.754;2023-12-07T09:38:59;97004.31;;;20.70;24.64
60479;BME280;46321;48.398;11.754;2023-12-07T09:41:26;96998.19;;;21.60;23.11
60479;BME280;46321;48.398;11.754;2023-12-07T09:43:52;97001.44;;;23.45;20.58
60479;BME280;46321;48.398;11.754;2023-12-07T09:46:17;96989.13;;;25.45;19.84
60479;BME280;46321;48.398;11.754;2023-12-07T09:48:43;96991.38;;;26.77;18.02
60479;BME280;46321;48.398;11.754;2023-12-07T09:51:10;96992.97;;;27.93;16.31
60479;BME280;46321;48.398;11.754;2023-12-07T09:53:38;96986.88;;;28.27;16.65
60479;BME280;46321;48.398;11.754;2023-12-07T09:56:05;96985.88;;;28.68;15.46
60479;BME280;46321;48.398;11.754;2023-12-07T09:58:30;96982.09;;;29.64;15.31
60479;BME280;46321;48.398;11.754;2023-12-07T10:00:55;96973.91;;;29.69;14.64
60479;BME280;46321;48.398;11.754;2023-12-07T10:03:22;96975.88;;;30.76;14.73
60479;BME280;46321;48.398;11.754;2023-12-07T10:05:58;96974.28;;;30.56;13.73
60479;BME280;46321;48.398;11.754;2023-12-07T10:08:31;96965.13;;;30.46;14.68
60479;BME280;46321;48.398;11.754;2023-12-07T10:11:10;96955.97;;;29.33;14.73
60479;BME280;46321;48.398;11.754;2023-12-07T10:13:37;96954.53;;;29.71;14.76
60479;BME280;46321;48.398;11.754;2023-12-07T10:16:07;96959.16;;;30.44;14.58
60479;BME280;46321;48.398;11.754;2023-12-07T10:18:34;96947.63;;;31.67;13.36
60479;BME280;46321;48.398;11.754;2023-12-07T10:20:59;96948.28;;;30.58;13.54
60479;BME280;46321;48.398;11.754;2023-12-07T10:23:25;96950.63;;;32.50;12.85
60479;BME280;46321;48.398;11.754;2023-12-07T10:25:52;96943.66;;;32.02;12.61
60479;BME280;46321;48.398;11.754;2023-12-07T10:28:18;96946.41;;;31.59;12.60
60479;BME280;46321;48.398;11.754;2023-12-07T10:30:44;96942.47;;;31.80;12.38
60479;BME280;46321;48.398;11.754;2023-12-07T10:33:10;96946.50;;;28.90;14.13
60479;BME280;46321;48.398;11.754;2023-12-07T10:35:44;96939.81;;;28.21;14.85
60479;BME280;46321;48.398;11.754;2023-12-07T10:38:10;96932.53;;;31.84;12.84
60479;BME280;46321;48.398;11.754;2023-12-07T10:40:35;96929.13;;;32.81;12.07
60479;BME280;46321;48.398;11.754;2023-12-07T10:43:04;96925.16;;;33.74;11.32
60479;BME280;46321;48.398;11.754;2023-12-07T10:45:30;96925.56;;;34.08;11.22
60479;BME280;46321;48.398;11.754;2023-12-07T10:48:07;96926.38;;;35.24;10.56
60479;BME280;46321;48.398;11.754;2023-12-07T10:50:37;96923.53;;;34.67;10.44
60479;BME280;46321;48.398;11.754;2023-12-07T10:53:14;96912.06;;;34.91;10.11
60479;BME280;46321;48.398;11.754;2023-12-07T10:55:55;96916.09;;;34.41;10.53
60479;BME280;46321;48.398;11.754;2023-12-07T10:58:21;96914.38;;;33.86;10.73
60479;BME280;46321;48.398;11.754;2023-12-07T11:00:48;96915.38;;;33.99;11.06
60479;BME280;46321;48.398;11.754;2023-12-07T11:03:16;96910.91;;;33.63;10.37
60479;BME280;46321;48.398;11.754;2023-12-07T11:05:46;96905.31;;;33.45;10.94
60479;BME280;46321;48.398;11.754;2023-12-07T11:08:21;96905.25;;;34.26;10.61
60479;BME280;46321;48.398;11.754;2023-12-07T11:13:36;96892.69;;;35.45;10.12
60479;BME280;46321;48.398;11.754;2023-12-07T11:16:03;96897.13;;;34.03;10.32
60479;BME280;46321;48.398;11.754;2023-12-07T11:18:28;96891.97;;;34.02;11.09
60479;BME280;46321;48.398;11.754;2023-12-07T11:20:55;96892.50;;;34.48;10.47
60479;BME280;46321;48.398;11.754;2023-12-07T11:23:21;96890.19;;;34.06;10.84
60479;BME280;46321;48.398;11.754;2023-12-07T11:25:47;96884.34;;;33.99;10.68
60479;BME280;46321;48.398;11.754;2023-12-07T11:28:14;96887.34;;;34.38;10.21
60479;BME280;46321;48.398;11.754;2023-12-07T11:30:45;96886.72;;;33.33;11.11
60479;BME280;46321;48.398;11.754;2023-12-07T11:33:11;96883.28;;;32.12;12.11
60479;BME280;46321;48.398;11.754;2023-12-07T11:36:03;96879.13;;;32.15;11.92
60479;BME280;46321;48.398;11.754;2023-12-07T11:38:28;96882.03;;;29.65;13.30
60479;BME280;46321;48.398;11.754;2023-12-07T11:40:55;96886.16;;;22.13;19.73
60479;BME280;46321;48.398;11.754;2023-12-07T11:43:37;96879.25;;;17.68;24.39
60479;BME280;46321;48.398;11.754;2023-12-07T11:46:09;96883.84;;;16.18;27.08
60479;BME280;46321;48.398;11.754;2023-12-07T11:48:34;96887.50;;;14.46;28.97
60479;BME280;46321;48.398;11.754;2023-12-07T11:51:04;96887.16;;;13.75;30.68
60479;BME280;46321;48.398;11.754;2023-12-07T11:53:35;96892.91;;;12.79;31.77
60479;BME280;46321;48.398;11.754;2023-12-07T11:56:05;96894.09;;;12.38;34.47
60479;BME280;46321;48.398;11.754;2023-12-07T11:58:32;96887.28;;;11.72;34.49
60479;BME280;46321;48.398;11.754;2023-12-07T12:00:58;96883.22;;;11.52;35.55
60479;BME280;46321;48.398;11.754;2023-12-07T12:03:24;96882.91;;;11.55;35.96
60479;BME280;46321;48.398;11.754;2023-12-07T12:05:50;96882.47;;;11.35;36.08
60479;BME280;46321;48.398;11.754;2023-12-07T12:08:16;96878.63;;;10.64;37.02
60479;BME280;46321;48.398;11.754;2023-12-07T12:10:42;96890.13;;;10.29;37.51
60479;BME280;46321;48.398;11.754;2023-12-07T12:13:08;96874.56;;;10.10;38.73
60479;BME280;46321;48.398;11.754;2023-12-07T12:15:34;96872.72;;;9.93;39.21
60479;BME280;46321;48.398;11.754;2023-12-07T12:17:59;96871.47;;;9.62;39.26
60479;BME280;46321;48.398;11.754;2023-12-07T12:20:25;96878.31;;;9.12;40.38
60479;BME280;46321;48.398;11.754;2023-12-07T12:22:51;96870.72;;;9.09;41.75
60479;BME280;46321;48.398;11.754;2023-12-07T12:25:24;96865.72;;;9.32;42.25
60479;BME280;46321;48.398;11.754;2023-12-07T12:27:55;96867.00;;;8.93;42.67
60479;BME280;46321;48.398;11.754;2023-12-07T12:30:24;96870.09;;;8.62;41.51
60479;BME280;46321;48.398;11.754;2023-12-07T12:32:50;96873.25;;;8.65;42.40
60479;BME280;46321;48.398;11.754;2023-12-07T12:35:16;96869.03;;;8.36;43.27
60479;BME280;46321;48.398;11.754;2023-12-07T12:37:42;96860.22;;;8.90;43.78
60479;BME280;46321;48.398;11.754;2023-12-07T12:40:10;96862.69;;;9.19;42.86
60479;BME280;46321;48.398;11.754;2023-12-07T12:42:35;96856.44;;;9.20;41.83
60479;BME280;46321;48.398;11.754;2023-12-07T12:45:05;96861.09;;;8.18;43.46
60479;BME280;46321;48.398;11.754;2023-12-07T12:47:30;96853.94;;;7.73;45.71
60479;BME280;46321;48.398;11.754;2023-12-07T12:49:56;96850.94;;;7.68;46.03